createdAt,value
2023-02-13T00:00:38.159Z,4.44
2023-02-13T00:05:38.941Z,4.39
2023-02-13T00:10:39.703Z,4.41
2023-02-13T00:15:40.598Z,4.44
2023-02-13T00:20:41.360Z,4.42
2023-02-13T00:25:42.126Z,4.42
2023-02-13T00:30:42.881Z,4.37
2023-02-13T00:35:43.759Z,4.42
2023-02-13T00:40:44.485Z,4.42
2023-02-13T00:45:45.309Z,4.43
2023-02-13T00:50:47.170Z,4.36
2023-02-13T00:55:48.256Z,4.21
2023-02-13T01:00:49.235Z,4.14
2023-02-13T01:05:50.902Z,4.09
2023-02-13T01:10:51.740Z,4.00
2023-02-13T01:15:52.666Z,3.97
2023-02-13T01:21:00.053Z,3.97
2023-02-13T01:26:06.159Z,3.94
2023-02-13T01:31:07.054Z,3.98
2023-02-13T01:36:10.496Z,3.98
2023-02-13T01:41:12.238Z,3.79
2023-02-13T01:46:18.641Z,3.79
2023-02-13T01:51:27.729Z,3.71
2023-02-13T01:56:40.033Z,3.82
2023-02-13T02:01:43.680Z,3.81
2023-02-13T02:06:56.380Z,3.89
2023-02-13T02:12:05.176Z,3.85
2023-02-13T02:17:09.364Z,3.84
2023-02-13T02:24:32.120Z,3.90
2023-02-13T02:36:05.922Z,3.81
2023-02-13T02:41:40.856Z,3.89
2023-02-13T02:47:14.377Z,3.80
2023-02-13T02:52:19.766Z,3.66
2023-02-13T03:06:09.978Z,3.61
2023-02-13T03:11:29.153Z,3.57
2023-02-13T03:16:48.539Z,3.41
2023-02-13T03:22:16.896Z,3.36
2023-02-13T03:30:07.986Z,3.26
2023-02-13T03:35:52.165Z,3.29
2023-02-13T03:41:19.235Z,3.13
2023-02-13T03:46:21.689Z,3.00
2023-02-13T03:51:50.847Z,3.06
2023-02-13T03:57:11.585Z,3.02
2023-02-13T04:02:19.877Z,3.01
2023-02-13T04:07:30.125Z,3.02
2023-02-13T04:12:48.425Z,3.13
2023-02-13T04:17:54.470Z,3.08
2023-02-13T04:22:55.203Z,3.17
2023-02-13T04:27:55.962Z,3.13
2023-02-13T04:32:56.808Z,3.06
2023-02-13T04:37:57.572Z,3.15
2023-02-13T04:42:58.497Z,3.13
2023-02-13T04:47:59.457Z,3.09
2023-02-13T04:53:00.206Z,3.03
2023-02-13T04:58:01.235Z,3.00
2023-02-13T05:03:07.064Z,2.97
2023-02-13T05:08:08.362Z,2.98
2023-02-13T05:13:09.559Z,2.91
2023-02-13T05:18:10.264Z,2.80
2023-02-13T05:23:22.584Z,2.75
2023-02-13T05:28:41.979Z,2.77
2023-02-13T05:33:42.992Z,2.82
2023-02-13T05:38:43.749Z,2.84
2023-02-13T05:43:44.535Z,2.81
2023-02-13T05:48:45.276Z,2.84
2023-02-13T05:53:46.011Z,2.76
2023-02-13T05:58:46.769Z,2.89
2023-02-13T06:03:48.241Z,2.94
2023-02-13T06:08:49.538Z,2.73
2023-02-13T06:13:50.406Z,2.63
2023-02-13T06:18:51.266Z,2.63
2023-02-13T06:23:52.227Z,2.66
2023-02-13T06:28:56.086Z,2.64
2023-02-13T06:33:57.327Z,2.53
2023-02-13T06:38:58.030Z,2.46
2023-02-13T06:43:58.837Z,2.46
2023-02-13T06:48:59.558Z,2.48
2023-02-13T06:54:00.361Z,2.47
2023-02-13T06:59:01.276Z,2.48
2023-02-13T07:04:02.510Z,2.56
2023-02-13T07:09:04.062Z,2.57
2023-02-13T07:14:08.914Z,2.72
2023-02-13T07:19:09.692Z,2.76
2023-02-13T07:24:10.683Z,2.80
2023-02-13T07:29:12.408Z,2.78
2023-02-13T07:34:13.707Z,2.69
2023-02-13T07:39:14.699Z,2.68
2023-02-13T07:44:15.469Z,2.76
2023-02-13T07:49:16.197Z,2.80
2023-02-13T07:54:16.942Z,2.94
2023-02-13T07:59:17.692Z,3.03
2023-02-13T08:04:18.514Z,3.04
2023-02-13T08:09:40.744Z,3.12
2023-02-13T08:14:41.766Z,3.24
2023-02-13T08:19:42.516Z,3.16
2023-02-13T08:24:43.466Z,3.26
2023-02-13T08:29:44.398Z,3.25
2023-02-13T08:34:45.245Z,3.17
2023-02-13T08:39:46.026Z,3.15
2023-02-13T08:44:46.806Z,3.25
2023-02-13T08:49:47.584Z,3.32
2023-02-13T08:54:48.410Z,3.37
2023-02-13T08:59:49.153Z,3.35
2023-02-13T09:04:49.964Z,3.44
2023-02-13T09:09:50.733Z,3.43
2023-02-13T09:14:51.601Z,3.44
2023-02-13T09:19:52.332Z,3.65
2023-02-13T09:24:53.421Z,3.66
2023-02-13T09:29:54.144Z,3.81
2023-02-13T09:34:54.958Z,3.95
2023-02-13T09:39:55.910Z,3.96
2023-02-13T09:45:01.032Z,3.88
2023-02-13T09:57:39.563Z,4.80
2023-02-13T10:06:00.791Z,5.87
2023-02-13T10:11:39.158Z,6.05
2023-02-13T10:17:32.086Z,6.48
2023-02-13T10:22:43.827Z,6.88
2023-02-13T10:27:52.708Z,6.76
2023-02-13T10:34:20.973Z,7.12
2023-02-13T10:39:30.061Z,7.62
2023-02-13T10:49:51.889Z,8.48
2023-02-13T10:55:13.134Z,7.71
2023-02-13T11:01:52.413Z,8.43
2023-02-13T11:07:00.136Z,8.44
2023-02-13T11:12:24.713Z,8.91
2023-02-13T11:17:29.526Z,8.27
2023-02-13T11:22:37.195Z,8.93
2023-02-13T11:27:39.231Z,9.33
2023-02-13T11:32:40.374Z,9.43
2023-02-13T11:37:41.175Z,9.31
2023-02-13T11:42:42.873Z,9.26
2023-02-13T11:47:43.919Z,9.27
2023-02-13T11:52:54.736Z,9.69
2023-02-13T11:58:02.841Z,9.61
2023-02-13T12:03:29.989Z,9.66
2023-02-13T12:08:33.787Z,10.00
2023-02-13T12:13:38.410Z,10.11
2023-02-13T12:18:44.051Z,9.01
2023-02-13T12:24:22.638Z,9.16
2023-02-13T12:33:16.276Z,9.74
2023-02-13T12:38:33.483Z,9.64
2023-02-13T12:46:52.072Z,9.82
2023-02-13T12:52:30.632Z,9.65
2023-02-13T12:57:55.907Z,9.70
2023-02-13T13:06:12.252Z,9.89
2023-02-13T13:12:21.346Z,9.51
2023-02-13T13:17:39.545Z,10.08
2023-02-13T13:22:52.883Z,10.03
2023-02-13T13:27:57.333Z,9.99
2023-02-13T13:33:13.205Z,10.41
2023-02-13T13:38:24.755Z,10.17
2023-02-13T13:43:41.043Z,10.28
2023-02-13T13:50:14.677Z,10.13
2023-02-13T13:56:07.098Z,10.53
2023-02-13T14:01:25.284Z,10.34
2023-02-13T14:13:28.936Z,10.80
2023-02-13T14:18:30.863Z,10.25
2023-02-13T14:23:49.167Z,10.55
2023-02-13T14:29:18.417Z,10.36
2023-02-13T14:34:25.793Z,9.95
2023-02-13T14:39:33.806Z,10.59
2023-02-13T14:44:48.605Z,10.33
2023-02-13T14:49:50.996Z,10.24
2023-02-13T14:54:55.587Z,10.63
2023-02-13T15:00:07.943Z,10.64
2023-02-13T15:05:14.582Z,10.71
2023-02-13T15:11:02.280Z,10.77
2023-02-13T15:16:07.515Z,10.47
2023-02-13T15:21:15.530Z,10.29
2023-02-13T15:26:23.029Z,10.17
2023-02-13T15:31:32.363Z,10.20
2023-02-13T15:36:40.654Z,9.97
2023-02-13T15:41:44.824Z,10.10
2023-02-13T15:46:52.981Z,9.78
2023-02-13T15:52:13.585Z,9.35
2023-02-13T15:57:14.771Z,9.31
2023-02-13T16:02:21.977Z,9.03
2023-02-13T16:07:22.719Z,8.66
2023-02-13T16:12:26.019Z,8.51
2023-02-13T16:17:32.294Z,8.36
2023-02-13T16:24:00.050Z,8.24
2023-02-13T16:29:01.816Z,8.22
2023-02-13T16:34:24.866Z,8.14
2023-02-13T16:39:31.185Z,8.08
2023-02-13T16:44:32.435Z,7.93
2023-02-13T16:49:36.527Z,7.92
2023-02-13T16:54:50.650Z,7.89
2023-02-13T16:59:55.258Z,7.71
2023-02-13T17:05:41.302Z,7.43
2023-02-13T17:11:02.599Z,7.12
2023-02-13T17:16:03.837Z,6.89
2023-02-13T17:21:05.390Z,6.60
2023-02-13T17:26:06.282Z,6.39
2023-02-13T17:31:10.228Z,6.14
2023-02-13T17:36:12.339Z,5.92
2023-02-13T17:41:16.343Z,5.88
2023-02-13T17:46:17.408Z,5.62
2023-02-13T17:51:18.211Z,5.49
2023-02-13T17:56:18.983Z,5.37
2023-02-13T18:01:19.908Z,5.27
2023-02-13T18:06:20.844Z,5.03
2023-02-13T18:11:21.586Z,4.94
2023-02-13T18:16:24.529Z,4.94
2023-02-13T18:21:25.288Z,4.92
2023-02-13T18:26:26.114Z,4.89
2023-02-13T18:31:26.974Z,4.57
2023-02-13T18:36:27.981Z,4.57
2023-02-13T18:41:28.791Z,4.50
2023-02-13T18:46:29.904Z,4.43
2023-02-13T18:51:31.203Z,4.37
2023-02-13T18:56:31.980Z,4.29
2023-02-13T19:01:34.640Z,4.24
2023-02-13T19:06:39.617Z,4.35
2023-02-13T19:11:42.025Z,4.42
2023-02-13T19:16:42.865Z,4.55
2023-02-13T19:21:43.651Z,4.58
2023-02-13T19:26:44.451Z,4.55
2023-02-13T19:31:45.378Z,4.54
2023-02-13T19:36:46.409Z,4.52
2023-02-13T19:41:47.266Z,4.50
2023-02-13T19:46:48.424Z,4.60
2023-02-13T19:51:49.310Z,4.39
2023-02-13T19:56:50.464Z,4.36
2023-02-13T20:01:51.383Z,4.22
2023-02-13T20:06:57.398Z,4.06
2023-02-13T20:11:58.133Z,4.02
2023-02-13T20:16:59.021Z,3.98
2023-02-13T20:22:00.973Z,3.83
2023-02-13T20:27:01.735Z,3.72
2023-02-13T20:32:02.713Z,3.70
2023-02-13T20:37:03.592Z,3.80
2023-02-13T20:42:04.388Z,3.64
2023-02-13T20:47:05.222Z,3.59
2023-02-13T20:52:05.968Z,3.54
2023-02-13T20:57:06.787Z,3.37
2023-02-13T21:02:09.301Z,3.26
2023-02-13T21:07:10.495Z,3.09
2023-02-13T21:12:11.252Z,3.02
2023-02-13T21:17:12.012Z,2.93
2023-02-13T21:22:13.034Z,2.90
2023-02-13T21:27:13.791Z,3.16
2023-02-13T21:32:14.712Z,3.17
2023-02-13T21:37:15.655Z,2.91
2023-02-13T21:42:16.454Z,2.80
2023-02-13T21:47:17.283Z,2.58
2023-02-13T21:52:18.447Z,2.47
2023-02-13T21:57:19.201Z,2.39
2023-02-13T22:02:20.196Z,2.47
2023-02-13T22:07:21.149Z,2.44
2023-02-13T22:12:21.890Z,2.48
2023-02-13T22:17:22.636Z,2.33
2023-02-13T22:22:23.367Z,2.34
2023-02-13T22:27:24.104Z,2.28
2023-02-13T22:32:24.915Z,2.30
2023-02-13T22:37:25.733Z,2.33
2023-02-13T22:42:26.487Z,2.23
2023-02-13T22:47:29.811Z,2.25
2023-02-13T22:52:31.087Z,2.04
2023-02-13T22:57:31.882Z,2.05
2023-02-13T23:02:34.386Z,2.05
2023-02-13T23:07:35.284Z,1.96
2023-02-13T23:12:36.155Z,1.87
2023-02-13T23:17:56.892Z,1.93
2023-02-13T23:22:57.833Z,1.90
2023-02-13T23:27:58.612Z,1.98
2023-02-13T23:32:59.509Z,1.88
2023-02-13T23:38:00.382Z,1.91
2023-02-13T23:43:01.833Z,1.93
2023-02-13T23:48:03.055Z,1.92
2023-02-13T23:53:03.864Z,1.82
2023-02-13T23:58:04.683Z,1.79
